createdAt,value
2019-02-18T00:00:32.880Z,100762.64
2019-02-18T00:05:34.551Z,100765.17
2019-02-18T00:10:36.254Z,100759.77
2019-02-18T00:15:38.064Z,100756.80
2019-02-18T00:20:39.731Z,100760.19
2019-02-18T00:25:41.307Z,100757.52
2019-02-18T00:30:42.891Z,100759.67
2019-02-18T00:35:44.583Z,100758.83
2019-02-18T00:40:46.150Z,100755.89
2019-02-18T00:45:47.724Z,100754.06
2019-02-18T00:50:49.300Z,100753.86
2019-02-18T00:55:50.865Z,100756.97
2019-02-18T01:00:52.429Z,100759.91
2019-02-18T01:05:53.985Z,100762.87
2019-02-18T01:10:55.602Z,100754.42
2019-02-18T01:15:57.161Z,100750.48
2019-02-18T01:20:58.725Z,100745.25
2019-02-18T01:26:00.534Z,100750.67
2019-02-18T01:31:02.122Z,100752.45
2019-02-18T01:36:03.732Z,100746.78
2019-02-18T01:41:05.393Z,100733.47
2019-02-18T01:46:07.084Z,100729.33
2019-02-18T01:51:08.752Z,100723.81
2019-02-18T01:56:10.324Z,100725.52
2019-02-18T02:01:12.021Z,100709.95
2019-02-18T02:06:13.935Z,100705.34
2019-02-18T02:11:15.614Z,100697.92
2019-02-18T02:16:17.313Z,100691.03
2019-02-18T02:21:18.886Z,100687.00
2019-02-18T02:26:20.450Z,100687.45
2019-02-18T02:31:22.037Z,100686.29
2019-02-18T02:36:23.617Z,100680.84
2019-02-18T02:41:25.218Z,100673.95
2019-02-18T02:46:26.782Z,100668.11
2019-02-18T02:51:28.349Z,100668.11
2019-02-18T02:56:29.918Z,100672.31
2019-02-18T03:01:31.491Z,100664.81
2019-02-18T03:06:33.057Z,100655.31
2019-02-18T03:11:34.642Z,100656.61
2019-02-18T03:16:36.242Z,100652.48
2019-02-18T03:21:37.937Z,100656.44
2019-02-18T03:26:39.614Z,100660.71
2019-02-18T03:31:41.278Z,100650.38
2019-02-18T03:36:42.894Z,100648.53
2019-02-18T03:41:44.474Z,100652.56
2019-02-18T03:46:46.026Z,100650.06
2019-02-18T03:51:47.632Z,100655.53
2019-02-18T03:56:49.230Z,100652.84
2019-02-18T04:01:50.902Z,100650.49
2019-02-18T04:06:52.469Z,100653.70
2019-02-18T04:11:54.137Z,100653.59
2019-02-18T04:16:55.700Z,100656.45
2019-02-18T04:21:57.270Z,100654.19
2019-02-18T04:26:58.826Z,100659.55
2019-02-18T04:32:00.370Z,100649.47
2019-02-18T04:37:01.941Z,100643.39
2019-02-18T04:42:03.633Z,100645.54
2019-02-18T04:47:05.215Z,100642.47
2019-02-18T04:52:06.893Z,100645.19
2019-02-18T04:57:08.464Z,100640.93
2019-02-18T05:02:10.080Z,100635.26
2019-02-18T05:07:11.646Z,100641.67
2019-02-18T05:12:13.208Z,100639.42
2019-02-18T05:17:14.773Z,100639.20
2019-02-18T05:22:16.347Z,100637.28
2019-02-18T05:27:17.934Z,100633.97
2019-02-18T05:32:19.486Z,100640.73
2019-02-18T05:37:21.044Z,100636.73
2019-02-18T05:42:22.662Z,100634.23
2019-02-18T05:47:24.220Z,100639.83
2019-02-18T05:52:25.777Z,100638.39
2019-02-18T05:57:27.351Z,100641.37
2019-02-18T06:02:28.978Z,100645.52
2019-02-18T06:07:30.557Z,100646.38
2019-02-18T06:12:32.128Z,100647.91
2019-02-18T06:17:33.697Z,100653.48
2019-02-18T06:22:35.247Z,100652.30
2019-02-18T06:27:36.905Z,100656.22
2019-02-18T06:32:38.476Z,100662.27
2019-02-18T06:37:40.042Z,100660.95
2019-02-18T06:42:41.706Z,100663.44
2019-02-18T06:47:43.255Z,100665.59
2019-02-18T06:52:44.809Z,100666.30
2019-02-18T06:58:04.689Z,100673.91
2019-02-18T07:03:20.354Z,100672.95
2019-02-18T07:08:31.367Z,100682.30
2019-02-18T07:13:32.939Z,100681.69
2019-02-18T07:18:34.510Z,100679.33
2019-02-18T07:23:36.179Z,100685.95
2019-02-18T07:28:37.742Z,100692.96
2019-02-18T07:33:39.285Z,100688.22
2019-02-18T07:38:40.854Z,100682.27
2019-02-18T07:43:42.521Z,100686.17
2019-02-18T07:48:44.087Z,100693.42
2019-02-18T07:53:45.640Z,100691.28
2019-02-18T07:58:47.214Z,100686.49
2019-02-18T08:03:48.779Z,100680.40
2019-02-18T08:08:50.390Z,100681.80
2019-02-18T08:13:51.967Z,100681.42
2019-02-18T08:18:53.530Z,100680.16
2019-02-18T08:24:00.184Z,100674.30
2019-02-18T08:28:58.605Z,100671.05
2019-02-18T08:34:00.171Z,100678.97
2019-02-18T08:39:01.746Z,100664.06
2019-02-18T08:44:03.412Z,100663.56
2019-02-18T08:49:04.980Z,100672.19
2019-02-18T08:54:06.559Z,100667.33
2019-02-18T08:59:08.237Z,100668.97
2019-02-18T09:04:09.798Z,100661.98
2019-02-18T09:09:11.463Z,100663.68
2019-02-18T09:14:13.023Z,100663.92
2019-02-18T09:19:14.587Z,100660.84
2019-02-18T09:24:20.235Z,100653.36
2019-02-18T09:29:21.760Z,100653.94
2019-02-18T09:34:23.344Z,100649.56
2019-02-18T09:39:31.166Z,100646.45
2019-02-18T09:44:28.404Z,100656.61
2019-02-18T09:49:29.984Z,100641.03
2019-02-18T09:54:31.550Z,100643.52
2019-02-18T09:59:33.110Z,100632.05
2019-02-18T10:04:34.666Z,100641.08
2019-02-18T10:09:36.224Z,100640.95
2019-02-18T10:14:37.929Z,100635.91
2019-02-18T10:19:39.654Z,100636.70
2019-02-18T10:24:50.738Z,100635.56
2019-02-18T10:29:44.816Z,100622.63
2019-02-18T10:34:46.585Z,100623.47
2019-02-18T10:39:48.182Z,100623.05
2019-02-18T10:44:49.751Z,100614.27
2019-02-18T10:49:51.509Z,100613.70
2019-02-18T10:54:53.100Z,100604.20
2019-02-18T10:59:54.681Z,100602.95
2019-02-18T11:04:56.257Z,100600.95
2019-02-18T11:09:57.844Z,100592.16
2019-02-18T11:14:59.499Z,100589.33
2019-02-18T11:20:01.190Z,100582.20
2019-02-18T11:25:03.302Z,100575.22
2019-02-18T11:30:06.917Z,100571.02
2019-02-18T11:35:09.238Z,100555.98
2019-02-18T11:40:12.293Z,100554.69
2019-02-18T11:45:14.170Z,100550.26
2019-02-18T11:50:15.920Z,100545.62
2019-02-18T11:55:17.494Z,100530.52
2019-02-18T12:00:19.533Z,100520.88
2019-02-18T12:05:21.326Z,100508.25
2019-02-18T12:10:23.004Z,100502.98
2019-02-18T12:15:24.682Z,100495.03
2019-02-18T12:20:26.277Z,100483.75
2019-02-18T12:25:27.898Z,100479.41
2019-02-18T12:30:29.581Z,100461.67
2019-02-18T12:35:31.266Z,100459.31
2019-02-18T12:40:34.854Z,100448.77
2019-02-18T12:45:37.280Z,100453.80
2019-02-18T12:50:38.978Z,100448.07
2019-02-18T12:55:40.683Z,100444.64
2019-02-18T13:00:42.357Z,100437.67
2019-02-18T13:05:43.967Z,100430.91
2019-02-18T13:10:45.780Z,100424.11
2019-02-18T13:15:47.454Z,100423.13
2019-02-18T13:20:49.144Z,100415.88
2019-02-18T13:25:50.898Z,100405.88
2019-02-18T13:30:52.463Z,100389.70
2019-02-18T13:35:54.051Z,100386.94
2019-02-18T13:40:55.727Z,100381.12
2019-02-18T13:45:57.303Z,100374.28
2019-02-18T13:50:58.899Z,100375.39
2019-02-18T13:56:00.583Z,100360.88
2019-02-18T14:01:02.270Z,100355.08
2019-02-18T14:06:04.337Z,100366.48
2019-02-18T14:11:06.019Z,100348.78
2019-02-18T14:16:07.658Z,100344.63
2019-02-18T14:21:09.349Z,100342.81
2019-02-18T14:26:11.022Z,100339.83
2019-02-18T14:31:13.222Z,100327.89
2019-02-18T14:36:14.833Z,100323.92
2019-02-18T14:41:16.521Z,100323.92
2019-02-18T14:46:18.209Z,100320.42
2019-02-18T14:51:19.764Z,100310.12
2019-02-18T14:56:21.525Z,100316.64
2019-02-18T15:01:23.208Z,100307.78
2019-02-18T15:06:24.894Z,100302.16
2019-02-18T15:11:26.672Z,100303.31
2019-02-18T15:16:28.284Z,100299.93
2019-02-18T15:21:29.851Z,100295.31
2019-02-18T15:26:31.535Z,100288.09
2019-02-18T15:31:33.115Z,100280.12
2019-02-18T15:36:34.829Z,100283.45
2019-02-18T15:41:36.418Z,100277.06
2019-02-18T15:46:37.992Z,100277.63
2019-02-18T15:51:39.589Z,100277.87
2019-02-18T15:56:41.275Z,100263.70
2019-02-18T16:01:43.049Z,100265.62
2019-02-18T16:06:44.626Z,100259.60
2019-02-18T16:11:46.191Z,100260.20
2019-02-18T16:16:48.085Z,100256.14
2019-02-18T16:21:49.666Z,100254.14
2019-02-18T16:26:51.250Z,100245.27
2019-02-18T16:31:52.844Z,100246.91
2019-02-18T16:36:54.437Z,100252.25
2019-02-18T16:41:56.017Z,100241.65
2019-02-18T16:46:57.713Z,100244.71
2019-02-18T16:51:59.321Z,100250.73
2019-02-18T16:57:01.092Z,100243.55
2019-02-18T17:02:02.945Z,100254.34
2019-02-18T17:07:04.521Z,100248.78
2019-02-18T17:12:06.220Z,100253.76
2019-02-18T17:17:07.870Z,100247.51
2019-02-18T17:22:09.438Z,100257.41
2019-02-18T17:27:11.022Z,100252.30
2019-02-18T17:32:12.614Z,100247.52
2019-02-18T17:37:14.568Z,100243.89
2019-02-18T17:42:16.243Z,100240.07
2019-02-18T17:47:17.981Z,100239.23
2019-02-18T17:52:19.650Z,100237.92
2019-02-18T17:57:21.230Z,100240.68
2019-02-18T18:02:22.910Z,100241.48
2019-02-18T18:07:24.462Z,100233.90
2019-02-18T18:12:26.023Z,100228.14
2019-02-18T18:17:27.881Z,100228.95
2019-02-18T18:22:29.599Z,100226.30
2019-02-18T18:27:31.192Z,100216.48
2019-02-18T18:32:32.762Z,100224.35
2019-02-18T18:37:34.344Z,100215.44
2019-02-18T18:42:36.030Z,100223.16
2019-02-18T18:47:37.702Z,100213.72
2019-02-18T18:52:39.262Z,100210.31
2019-02-18T18:57:40.832Z,100203.50
2019-02-18T19:02:42.432Z,100207.49
2019-02-18T19:07:44.119Z,100211.16
2019-02-18T19:12:45.720Z,100210.03
2019-02-18T19:17:47.397Z,100211.52
2019-02-18T19:22:49.213Z,100214.78
2019-02-18T19:27:50.783Z,100209.03
2019-02-18T19:32:52.517Z,100214.98
2019-02-18T19:37:54.218Z,100222.37
2019-02-18T19:42:55.872Z,100224.19
2019-02-18T19:47:57.873Z,100225.95
2019-02-18T19:52:59.432Z,100224.64
2019-02-18T19:58:01.052Z,100211.13
2019-02-18T20:03:02.619Z,100211.41
2019-02-18T20:08:04.363Z,100217.81
2019-02-18T20:13:06.446Z,100218.77
2019-02-18T20:18:08.045Z,100205.12
2019-02-18T20:23:09.637Z,100210.34
2019-02-18T20:28:11.213Z,100207.52
2019-02-18T20:33:12.797Z,100205.02
2019-02-18T20:38:14.806Z,100206.98
2019-02-18T20:43:16.391Z,100203.20
2019-02-18T20:48:17.940Z,100200.21
2019-02-18T20:53:19.519Z,100205.50
2019-02-18T20:58:21.082Z,100206.31
2019-02-18T21:03:22.660Z,100202.50
2019-02-18T21:08:24.230Z,100207.08
2019-02-18T21:13:25.984Z,100202.47
2019-02-18T21:18:28.039Z,100200.95
2019-02-18T21:23:29.619Z,100192.05
2019-02-18T21:28:31.364Z,100192.82
2019-02-18T21:33:32.958Z,100196.17
2019-02-18T21:38:34.577Z,100190.03
2019-02-18T21:43:36.268Z,100188.17
2019-02-18T21:48:37.846Z,100193.55
2019-02-18T21:53:39.456Z,100187.16
2019-02-18T21:58:41.224Z,100184.40
2019-02-18T22:03:42.803Z,100184.36
2019-02-18T22:08:44.372Z,100180.79
2019-02-18T22:13:45.958Z,100181.92
2019-02-18T22:18:47.532Z,100177.31
2019-02-18T22:23:49.092Z,100171.93
2019-02-18T22:28:50.680Z,100175.39
2019-02-18T22:33:52.288Z,100174.93
2019-02-18T22:38:53.873Z,100175.67
2019-02-18T22:43:55.454Z,100184.09
2019-02-18T22:48:57.017Z,100182.68
2019-02-18T22:53:59.026Z,100182.16
2019-02-18T22:59:00.600Z,100187.34
2019-02-18T23:04:02.476Z,100186.84
2019-02-18T23:09:06.486Z,100191.33
2019-02-18T23:14:08.165Z,100184.73
2019-02-18T23:19:09.758Z,100183.45
2019-02-18T23:24:11.336Z,100181.11
2019-02-18T23:29:12.953Z,100174.62
2019-02-18T23:34:14.614Z,100170.72
2019-02-18T23:39:16.262Z,100175.65
2019-02-18T23:44:17.869Z,100178.80
2019-02-18T23:49:19.476Z,100178.55
2019-02-18T23:54:21.040Z,100178.38
2019-02-18T23:59:22.606Z,100180.58
